»·PEaware :: N544JH KLAS-KPSP

N544JH :: KLAS-KPSP

FLIGHT INFORMATION

Flight Status: Arrived
Operator: Privately registered:
United States
More flights under this callsign
Pilot: Merv A. (1555)
Aircraft: Unknown
(B60T)
More flights by this aircraft type
Origin: KLAS McCarran Intl
United States
Destination: KPSP Palm Springs Intl
United States
More flights between these airports :: More routes between these airports
Route: LAS V538 GFS V514 TRM
File this flight plan on PilotEdge
Remarks:
Altitude:
(Current/Filed)
20,000ft
Speed:
(Current/Filed)
250kts
Departed: 13-Jul-18 05:28 PM
Arrived: 13-Jul-18 06:26 PM
Distance/Time
Traveled:
151nm/0:58
Distance/Time
To Go:
Arrived

Flight Plot

Page will automatically refresh every two minutes.

Flight plan parsing failed; only flown route is shown


Map Options




Map Legend


Flown Route
Filed Route
Departure Airport
Arrival Airport
Navaid (VOR, NDB)
Fix

Horizontal Profiles

Position Reports

Time Latitude Longitude Heading Altitude Ground
Speed
13-Jul-18 17:07 36.099516 -115.159506 117 2184ft 0kts
13-Jul-18 17:08 36.099514 -115.159502 117 2184ft 0kts
13-Jul-18 17:09 36.099512 -115.159498 117 2184ft 0kts
13-Jul-18 17:10 36.099510 -115.159493 117 2184ft 0kts
13-Jul-18 17:11 36.099509 -115.159489 117 2184ft 0kts
13-Jul-18 17:12 36.099507 -115.159484 117 2184ft 0kts
13-Jul-18 17:13 36.099505 -115.159480 117 2184ft 0kts
13-Jul-18 17:14 36.099503 -115.159475 117 2184ft 0kts
13-Jul-18 17:15 36.099501 -115.159471 117 2184ft 0kts
13-Jul-18 17:16 36.099499 -115.159466 117 2184ft 0kts
13-Jul-18 17:17 36.099497 -115.159462 117 2184ft 0kts
13-Jul-18 17:18 36.099495 -115.159458 117 2184ft 0kts
13-Jul-18 17:19 36.099494 -115.159453 117 2184ft 0kts
13-Jul-18 17:20 36.099492 -115.159449 117 2184ft 0kts
13-Jul-18 17:21 36.099490 -115.159444 117 2184ft 0kts
13-Jul-18 17:22 36.099488 -115.159440 117 2184ft 0kts
13-Jul-18 17:23 36.099486 -115.159436 117 2184ft 0kts
13-Jul-18 17:24 36.099485 -115.159432 117 2184ft 0kts
13-Jul-18 17:25 36.099483 -115.159427 117 2184ft 0kts
13-Jul-18 17:26 36.099090 -115.157884 115 2184ft 0kts
13-Jul-18 17:27 36.099088 -115.157880 115 2184ft 0kts
13-Jul-18 17:28 36.098519 -115.157143 183 2184ft 5kts
13-Jul-18 17:29 36.089850 -115.162083 203 2220ft 118kts
13-Jul-18 17:30 36.056185 -115.173722 186 4061ft 123kts
13-Jul-18 17:31 36.016862 -115.179061 186 5032ft 159kts
13-Jul-18 17:32 35.971250 -115.184725 186 5415ft 172kts
13-Jul-18 17:33 35.922598 -115.173267 166 7369ft 175kts
13-Jul-18 17:34 35.876018 -115.162386 181 9653ft 167kts
13-Jul-18 17:35 35.829503 -115.164042 181 11954ft 166kts
13-Jul-18 17:36 35.782980 -115.164977 181 14139ft 172kts
13-Jul-18 17:37 35.733301 -115.165873 181 15952ft 182kts
13-Jul-18 17:38 35.682434 -115.166768 181 17753ft 183kts
13-Jul-18 17:39 35.630017 -115.167691 181 19183ft 199kts
13-Jul-18 17:40 35.572387 -115.168720 181 20004ft 218kts
13-Jul-18 17:41 35.508273 -115.169845 181 20024ft 235kts
13-Jul-18 17:42 35.441526 -115.171017 181 20013ft 244kts
13-Jul-18 17:43 35.373319 -115.172207 181 20003ft 247kts
13-Jul-18 17:44 35.303565 -115.173426 181 19996ft 253kts
13-Jul-18 17:45 35.232655 -115.174658 181 19988ft 254kts
13-Jul-18 17:46 35.162082 -115.175884 181 19983ft 255kts
13-Jul-18 17:47 35.093429 -115.192688 201 19953ft 254kts
13-Jul-18 17:48 35.027085 -115.222460 200 19957ft 254kts
13-Jul-18 17:49 34.960412 -115.251939 200 19960ft 254kts
13-Jul-18 17:50 34.894041 -115.281202 200 19965ft 253kts
13-Jul-18 17:51 34.827669 -115.310408 200 19971ft 254kts
13-Jul-18 17:52 34.761235 -115.339583 200 19978ft 254kts
13-Jul-18 17:53 34.694682 -115.368770 200 19984ft 254kts
13-Jul-18 17:54 34.628082 -115.397910 200 19990ft 254kts
13-Jul-18 17:55 34.561490 -115.426998 200 19998ft 254kts
13-Jul-18 17:56 34.494656 -115.456146 200 20004ft 254kts
13-Jul-18 17:57 34.428233 -115.485074 200 20010ft 254kts
13-Jul-18 17:58 34.361469 -115.514095 200 20017ft 254kts
13-Jul-18 17:59 34.301482 -115.556192 224 19310ft 247kts
13-Jul-18 18:00 34.251289 -115.613606 223 17926ft 250kts
13-Jul-18 18:01 34.200221 -115.671196 223 16528ft 250kts
13-Jul-18 18:02 34.150373 -115.727210 223 15131ft 243kts
13-Jul-18 18:03 34.099598 -115.780577 213 13731ft 241kts
13-Jul-18 18:04 34.044879 -115.824682 213 12376ft 229kts
13-Jul-18 18:05 33.992727 -115.866835 213 11078ft 223kts
13-Jul-18 18:06 33.942371 -115.907533 213 10055ft 205kts
13-Jul-18 18:07 33.897118 -115.944029 214 9464ft 194kts
13-Jul-18 18:08 33.851730 -115.980637 214 8669ft 199kts
13-Jul-18 18:09 33.805852 -116.017621 214 8077ft 195kts
13-Jul-18 18:10 33.761190 -116.053519 215 7573ft 189kts
13-Jul-18 18:11 33.717683 -116.088460 215 7071ft 186kts
13-Jul-18 18:12 33.676196 -116.121721 214 6940ft 171kts
13-Jul-18 18:13 33.634543 -116.147841 180 6942ft 174kts
13-Jul-18 18:14 33.600315 -116.107766 121 6943ft 185kts
13-Jul-18 18:15 33.623238 -116.068817 342 6704ft 186kts
13-Jul-18 18:16 33.627776 -116.114519 245 6029ft 161kts
13-Jul-18 18:17 33.629950 -116.165372 303 5343ft 166kts
13-Jul-18 18:18 33.657736 -116.210589 302 4667ft 166kts
13-Jul-18 18:19 33.683757 -116.255412 302 4164ft 162kts
13-Jul-18 18:20 33.708671 -116.298144 302 3759ft 146kts
13-Jul-18 18:21 33.731878 -116.337974 302 3357ft 144kts
13-Jul-18 18:22 33.754182 -116.376298 302 3011ft 144kts
13-Jul-18 18:23 33.776361 -116.414398 303 2488ft 122kts
13-Jul-18 18:24 33.789692 -116.446092 290 1813ft 103kts
13-Jul-18 18:25 33.800601 -116.477507 308 1253ft 100kts
13-Jul-18 18:26 33.822561 -116.498517 324 546ft 98kts
13-Jul-18 18:27 33.831787 -116.505978 54 480ft 0kts
13-Jul-18 18:28 33.831606 -116.505531 142 480ft 9kts
13-Jul-18 18:29 33.828496 -116.502760 143 480ft 15kts
13-Jul-18 18:30 33.825056 -116.499694 142 480ft 13kts
13-Jul-18 18:31 33.822571 -116.497260 122 480ft 6kts
13-Jul-18 18:32 33.822714 -116.496920 55 480ft 0kts
13-Jul-18 18:33 33.822714 -116.496920 55 480ft 0kts
13-Jul-18 18:34 33.822714 -116.496920 55 480ft 0kts

Navigation Log

Ident Type
Flight plan parsing failed, navigation log unavailable